Terminal Aerodrome Forecast
Issued by NWS

Home | Current Version | Previous Version | Text Only | Print | Product List | Glossary On
Versions: 1 2 3 4 5 6 7 8 9 10 11 12 13 14 15 16 17 18 19 20 21 22 23
000
FTUS43 KILX 292331
TAFBMI
TAF
KBMI 292331Z 3000/3024 VRB06KT P6SM VCTS SCT050CB BKN120
     FM300500 VRB03KT 3SM BR SCT050 BKN120
     FM301100 VRB03KT 2SM BR BKN010
     FM301500 30004KT P6SM BKN025
     FM301700 31004KT P6SM BKN035=

USA.gov is the U.S. government's official web portal to all federal, state and local government web resources and services.